Terminal Aerodrome Forecast
Issued by NWS Nashville, TN

Current Version | Previous Version | Text Only | Print | Product List | Glossary Off
Versions: 1 2 3 4 5 6 7 8 9 10 11 12 13 14 15 16 17 18 19 20 21 22 23 24 25

000
FTUS44 KOHX 271300 AAA
TAFBNA
TAF AMD
KBNA 271308Z 2713/2812 19008KT P6SM BKN013 OVC030
     FM271400 20008G18KT P6SM OVC030
     FM271800 22008G18KT P6SM VCSH BKN040 BKN250
      TEMPO 2719/2723 3SM TSRA BR BKN015CB OVC025
     FM280000 18003KT P6SM VCSH BKN035
     FM281000 00000KT 3SM BR SCT003=

USA.gov is the U.S. government's official web portal to all federal, state and local government web resources and services.